Time;durP1;ratioP1;P1;durP2;ratioP2;P2;SDS_P1;SDS_P2;PMS_P1;PMS_P2;Temp;Humidity;BMP_temperature;BMP_pressure;BME280_temperature;BME280_humidity;BME280_pressure;Samples;Min_cycle;Max_cycle;Signal;HPM_P1;HPM_P2
2022/09/05 00:02:00;;;;;;;2.77;2.60;;;25.00;40.60;;;;;;6160568;23;20461;-71
2022/09/05 00:04:53;;;;;;;2.43;2.33;;;25.00;40.70;;;;;;6177840;23;20882;-71
2022/09/05 00:07:47;;;;;;;2.30;2.20;;;25.00;40.70;;;;;;6205157;23;20740;-71
2022/09/05 00:10:33;;;;;;;2.47;2.37;;;25.00;40.70;;;;;;6190153;23;20852;-71
2022/09/05 00:13:03;;;;;;;2.30;2.20;;;25.00;40.70;;;;;;6174449;23;20559;-71
2022/09/05 00:15:28;;;;;;;2.40;2.30;;;25.00;40.70;;;;;;6207107;23;20409;-71
2022/09/05 00:18:13;;;;;;;2.53;2.43;;;25.00;40.70;;;;;;6181348;23;20432;-69
2022/09/05 00:21:10;;;;;;;2.10;2.00;;;25.00;40.70;;;;;;6195584;23;20201;-68
2022/09/05 00:23:57;;;;;;;2.00;1.90;;;25.00;40.70;;;;;;6149018;23;20415;-69
2022/09/05 00:26:39;;;;;;;1.90;1.80;;;25.00;40.70;;;;;;6207564;23;20416;-69
2022/09/05 00:29:47;;;;;;;2.33;2.23;;;25.00;40.70;;;;;;6184572;23;20479;-70
2022/09/05 00:32:19;;;;;;;2.33;2.13;;;25.00;40.70;;;;;;6138178;23;20416;-69
2022/09/05 00:35:09;;;;;;;2.40;2.30;;;25.00;40.70;;;;;;6192919;23;20431;-69
2022/09/05 00:37:41;;;;;;;2.10;2.00;;;25.00;40.70;;;;;;6186107;23;20435;-69
2022/09/05 00:40:13;;;;;;;2.43;2.33;;;25.00;40.80;;;;;;6204006;23;20416;-69
2022/09/05 00:42:39;;;;;;;2.33;2.23;;;25.00;40.70;;;;;;6175023;23;20506;-69
2022/09/05 00:45:08;;;;;;;2.37;2.27;;;25.00;40.70;;;;;;6203899;23;20458;-68
2022/09/05 00:47:43;;;;;;;2.40;2.30;;;25.00;40.70;;;;;;6202920;23;21180;-68
2022/09/05 00:50:26;;;;;;;2.13;2.03;;;25.00;40.70;;;;;;6205803;23;20897;-69
2022/09/05 00:53:00;;;;;;;2.47;2.37;;;25.00;40.70;;;;;;6181580;23;20425;-69
2022/09/05 00:55:38;;;;;;;2.30;2.20;;;24.90;40.70;;;;;;6190247;23;20521;-69
2022/09/05 00:58:18;;;;;;;2.00;1.90;;;25.00;40.70;;;;;;6178685;23;20435;-68
2022/09/05 01:00:52;;;;;;;2.40;2.30;;;24.90;40.60;;;;;;6168188;23;20455;-69
2022/09/05 01:03:33;;;;;;;2.07;1.97;;;24.90;40.70;;;;;;6174674;23;20915;-69
2022/09/05 01:06:16;;;;;;;2.00;1.90;;;25.00;40.80;;;;;;6177267;23;20544;-69
2022/09/05 01:08:54;;;;;;;2.43;2.33;;;24.90;40.60;;;;;;6174894;23;20945;-69
2022/09/05 01:11:38;;;;;;;2.07;1.97;;;24.90;40.60;;;;;;6203969;23;21150;-70
2022/09/05 01:14:28;;;;;;;2.27;2.17;;;24.90;40.60;;;;;;6205639;23;20423;-68
2022/09/05 01:17:03;;;;;;;2.03;1.93;;;24.90;40.70;;;;;;6155447;23;20435;-70
2022/09/05 01:20:10;;;;;;;2.90;2.20;;;24.90;40.70;;;;;;6204453;23;20464;-69
2022/09/05 01:22:50;;;;;;;2.20;2.10;;;24.90;40.60;;;;;;6139547;23;20498;-68
2022/09/05 01:25:31;;;;;;;2.40;2.30;;;24.90;40.70;;;;;;6182706;23;20420;-69
2022/09/05 01:28:34;;;;;;;2.10;2.00;;;24.90;40.70;;;;;;6195939;23;20495;-70
2022/09/05 01:31:16;;;;;;;2.33;2.23;;;24.90;40.70;;;;;;6184926;23;20417;-70
2022/09/05 01:33:52;;;;;;;3.07;2.90;;;24.90;40.70;;;;;;6178548;23;20419;-69
2022/09/05 01:36:37;;;;;;;3.10;3.00;;;24.90;40.70;;;;;;6181064;23;20744;-69
2022/09/05 01:39:17;;;;;;;2.63;2.53;;;24.90;40.70;;;;;;6203214;23;20427;-69
2022/09/05 01:41:53;;;;;;;2.87;2.77;;;24.90;40.70;;;;;;6184837;23;20420;-69
2022/09/05 01:44:43;;;;;;;2.50;2.30;;;24.90;40.70;;;;;;6179038;23;20419;-70
2022/09/05 01:47:34;;;;;;;2.50;2.40;;;24.90;40.70;;;;;;6181944;23;20474;-69
2022/09/05 01:50:33;;;;;;;2.60;2.50;;;24.90;40.70;;;;;;6204068;23;20426;-69
2022/09/05 01:53:25;;;;;;;2.53;2.43;;;24.90;40.70;;;;;;6141827;23;20450;-70
2022/09/05 01:56:22;;;;;;;2.33;2.23;;;24.90;40.70;;;;;;6181327;23;20417;-69
2022/09/05 01:58:54;;;;;;;2.00;1.90;;;24.90;40.70;;;;;;6199732;23;20919;-70
2022/09/05 02:01:52;;;;;;;2.70;2.60;;;24.90;40.70;;;;;;6194029;23;20423;-69
2022/09/05 02:04:39;;;;;;;2.20;2.10;;;24.90;40.70;;;;;;6195696;23;20431;-69
2022/09/05 02:07:37;;;;;;;2.67;2.57;;;24.90;40.80;;;;;;6204105;23;20418;-70
2022/09/05 02:10:24;;;;;;;2.73;2.53;;;24.90;40.80;;;;;;6139703;23;20416;-71
2022/09/05 02:13:13;;;;;;;2.27;2.07;;;24.90;40.70;;;;;;6205855;23;20494;-71
2022/09/05 02:15:43;;;;;;;2.37;2.27;;;24.90;40.70;;;;;;6167620;23;20442;-71
2022/09/05 02:18:21;;;;;;;2.37;2.27;;;24.90;40.70;;;;;;6177973;23;20956;-71
2022/09/05 02:20:57;;;;;;;2.83;2.67;;;24.90;40.80;;;;;;6175656;23;20536;-71
2022/09/05 02:23:53;;;;;;;2.40;2.30;;;24.90;40.70;;;;;;6206925;23;20419;-71
2022/09/05 02:26:28;;;;;;;2.80;2.60;;;24.90;40.70;;;;;;6192692;23;20415;-71
2022/09/05 02:29:16;;;;;;;2.00;1.90;;;24.90;40.70;;;;;;6175101;23;20490;-71
2022/09/05 02:31:55;;;;;;;2.43;2.33;;;24.90;40.70;;;;;;6187840;23;20942;-71
2022/09/05 02:34:34;;;;;;;2.60;2.50;;;24.90;40.70;;;;;;6207177;23;20485;-71
2022/09/05 02:37:07;;;;;;;2.13;2.03;;;24.90;40.70;;;;;;6180729;23;21077;-71
2022/09/05 02:39:59;;;;;;;2.40;2.30;;;24.90;41.50;;;;;;6176638;23;20440;-71
2022/09/05 02:42:46;;;;;;;2.57;2.47;;;24.90;40.80;;;;;;6182133;23;20413;-71
2022/09/05 02:45:23;;;;;;;2.60;2.50;;;24.90;40.70;;;;;;6177673;23;20917;-71
2022/09/05 02:48:27;;;;;;;2.43;2.33;;;24.90;40.70;;;;;;6177353;23;20751;-71
2022/09/05 02:51:08;;;;;;;2.83;2.67;;;24.90;40.70;;;;;;6187969;23;20730;-71
2022/09/05 02:53:37;;;;;;;2.20;2.10;;;24.80;40.60;;;;;;6175808;23;20497;-72
2022/09/05 02:56:39;;;;;;;2.33;2.23;;;24.90;40.70;;;;;;6204932;23;20424;-71
2022/09/05 02:59:37;;;;;;;2.40;2.30;;;24.80;40.60;;;;;;6203614;23;20422;-71
2022/09/05 03:02:11;;;;;;;2.10;2.00;;;24.80;40.70;;;;;;6176139;23;21009;-71
2022/09/05 03:04:46;;;;;;;2.27;2.17;;;24.80;40.70;;;;;;6178210;23;20423;-70
2022/09/05 03:07:12;;;;;;;2.60;2.40;;;24.80;40.70;;;;;;6177601;23;20486;-71
2022/09/05 03:10:06;;;;;;;2.40;2.30;;;24.80;40.70;;;;;;6184784;23;20443;-71
2022/09/05 03:13:00;;;;;;;2.40;2.30;;;24.80;40.70;;;;;;6198642;23;20198;-71
2022/09/05 03:16:03;;;;;;;2.33;2.23;;;24.80;40.70;;;;;;6198473;23;20450;-71
2022/09/05 03:18:59;;;;;;;2.47;2.37;;;24.80;40.60;;;;;;6180218;23;20447;-71
2022/09/05 03:21:47;;;;;;;2.57;2.40;;;24.80;40.70;;;;;;6181637;23;20911;-71
2022/09/05 03:24:42;;;;;;;2.30;2.20;;;24.80;40.80;;;;;;6183063;23;20482;-70
2022/09/05 03:27:39;;;;;;;2.43;2.33;;;24.80;40.80;;;;;;6178943;23;20412;-71
2022/09/05 03:30:10;;;;;;;2.13;2.03;;;24.80;40.70;;;;;;6185345;23;20405;-70
2022/09/05 03:33:19;;;;;;;2.17;2.07;;;24.80;40.70;;;;;;6177140;23;20409;-71
2022/09/05 03:36:21;;;;;;;2.30;2.20;;;24.80;40.70;;;;;;6178764;23;21760;-72
2022/09/05 03:39:29;;;;;;;2.30;2.20;;;24.80;40.70;;;;;;6194064;23;20423;-71
2022/09/05 03:42:13;;;;;;;2.43;2.33;;;24.80;40.70;;;;;;6188307;23;20556;-71
2022/09/05 03:44:38;;;;;;;2.30;2.20;;;24.80;40.70;;;;;;6160892;23;20411;-71
2022/09/05 03:47:23;;;;;;;2.43;2.33;;;24.80;40.70;;;;;;6175214;23;20887;-71
2022/09/05 03:50:00;;;;;;;2.50;2.40;;;24.80;40.70;;;;;;6177677;23;20201;-71
2022/09/05 03:53:18;;;;;;;2.30;2.20;;;24.80;40.80;;;;;;6194404;23;20678;-71
2022/09/05 03:55:56;;;;;;;2.30;2.20;;;24.80;40.70;;;;;;6195441;23;22322;-71
2022/09/05 03:59:08;;;;;;;2.47;2.27;;;24.80;40.80;;;;;;6182124;23;20911;-71
2022/09/05 04:02:01;;;;;;;2.27;2.17;;;24.80;40.70;;;;;;6190901;23;20439;-71
2022/09/05 04:04:57;;;;;;;2.10;2.00;;;24.80;40.70;;;;;;6174600;23;20401;-71
2022/09/05 04:07:29;;;;;;;2.40;2.30;;;24.80;40.70;;;;;;6135943;23;21256;-71
2022/09/05 04:10:14;;;;;;;2.80;2.30;;;24.80;40.80;;;;;;6177691;23;20942;-71
2022/09/05 04:12:56;;;;;;;2.50;2.40;;;24.80;40.80;;;;;;6207264;23;20405;-71
2022/09/05 04:15:40;;;;;;;2.03;1.93;;;24.80;40.80;;;;;;6201198;23;20504;-72
2022/09/05 04:18:33;;;;;;;2.33;2.23;;;24.80;40.80;;;;;;6206159;23;20439;-71
2022/09/05 04:21:08;;;;;;;2.13;1.87;;;24.80;40.80;;;;;;6191609;23;20916;-71
2022/09/05 04:23:59;;;;;;;2.27;2.17;;;24.80;40.80;;;;;;6205962;23;20732;-72
2022/09/05 04:26:48;;;;;;;2.00;1.90;;;24.80;40.70;;;;;;6179015;23;20403;-72
2022/09/05 04:29:24;;;;;;;1.90;1.80;;;24.80;40.70;;;;;;6174018;23;20448;-71
2022/09/05 04:32:25;;;;;;;2.17;2.00;;;24.80;40.70;;;;;;6197585;23;20874;-71
2022/09/05 04:35:29;;;;;;;2.20;2.10;;;24.90;40.70;;;;;;6189725;23;20424;-69
2022/09/05 04:38:04;;;;;;;2.37;2.27;;;24.90;40.70;;;;;;6148983;23;20424;-71
2022/09/05 04:40:35;;;;;;;2.07;1.87;;;24.90;40.70;;;;;;6190202;23;20420;-71
2022/09/05 04:43:25;;;;;;;2.20;2.10;;;24.90;40.70;;;;;;6174904;23;20514;-71
2022/09/05 04:46:08;;;;;;;3.00;2.10;;;24.90;40.70;;;;;;6180969;23;20401;-71
2022/09/05 04:48:56;;;;;;;2.53;2.33;;;24.90;40.70;;;;;;6200845;23;20426;-71
2022/09/05 04:51:42;;;;;;;2.47;2.33;;;24.90;40.80;;;;;;6161238;23;20413;-71
2022/09/05 04:54:29;;;;;;;2.30;2.20;;;24.90;40.70;;;;;;6195742;23;20409;-71
2022/09/05 04:57:06;;;;;;;2.10;2.00;;;24.90;40.80;;;;;;6185543;23;20648;-72
2022/09/05 04:59:43;;;;;;;2.40;2.20;;;24.90;40.80;;;;;;6185633;23;20411;-71
2022/09/05 05:02:36;;;;;;;2.20;2.10;;;24.90;40.80;;;;;;6201458;23;20473;-71
2022/09/05 05:05:07;;;;;;;2.20;2.10;;;24.90;40.80;;;;;;6181539;23;20790;-70
2022/09/05 05:07:44;;;;;;;4.40;2.40;;;24.90;40.80;;;;;;6182093;23;20420;-71
2022/09/05 05:10:27;;;;;;;2.30;2.20;;;24.90;40.90;;;;;;6182923;23;20438;-70
2022/09/05 05:13:05;;;;;;;2.10;2.00;;;24.90;40.80;;;;;;6171291;23;20909;-69
2022/09/05 05:15:33;;;;;;;2.13;2.03;;;24.90;40.80;;;;;;6200924;23;20956;-71
2022/09/05 05:18:12;;;;;;;1.97;1.87;;;24.90;40.80;;;;;;6174341;23;20508;-70
2022/09/05 05:20:49;;;;;;;2.23;2.13;;;24.90;40.80;;;;;;6187011;23;20503;-71
2022/09/05 05:23:27;;;;;;;2.20;2.10;;;24.90;40.80;;;;;;6180660;23;20875;-69
2022/09/05 05:25:57;;;;;;;2.33;2.23;;;24.90;40.80;;;;;;6192780;23;20404;-69
2022/09/05 05:28:27;;;;;;;2.20;2.10;;;24.90;40.80;;;;;;6149866;23;20408;-70
2022/09/05 05:30:55;;;;;;;2.37;2.27;;;25.00;40.90;;;;;;6197049;23;20498;-70
2022/09/05 05:33:27;;;;;;;1.87;1.77;;;24.90;40.80;;;;;;6173272;23;20416;-71
2022/09/05 05:35:56;;;;;;;2.20;2.10;;;25.00;40.80;;;;;;6197500;23;20423;-70
2022/09/05 05:38:54;;;;;;;2.27;2.17;;;25.00;40.90;;;;;;6179960;23;20509;-71
2022/09/05 05:41:37;;;;;;;2.43;2.23;;;25.00;40.90;;;;;;6194309;23;20510;-71
2022/09/05 05:44:15;;;;;;;2.23;2.13;;;24.90;40.80;;;;;;6201734;23;20756;-70
2022/09/05 05:47:02;;;;;;;2.80;2.60;;;24.90;40.80;;;;;;6176393;23;20898;-70
2022/09/05 05:49:58;;;;;;;2.03;1.80;;;24.90;40.70;;;;;;6186188;23;20882;-71
2022/09/05 05:52:38;;;;;;;1.93;1.83;;;25.00;40.80;;;;;;6170239;23;20520;-70
2022/09/05 05:55:23;;;;;;;2.27;2.17;;;24.90;40.70;;;;;;6195726;23;20479;-71
2022/09/05 05:58:13;;;;;;;2.30;2.10;;;25.00;40.60;;;;;;6175097;23;20419;-69
2022/09/05 06:00:54;;;;;;;2.43;2.33;;;25.00;40.60;;;;;;6196739;23;20463;-70
2022/09/05 06:03:50;;;;;;;2.30;2.10;;;24.90;40.60;;;;;;6174551;23;20412;-70
2022/09/05 06:06:34;;;;;;;2.23;2.13;;;24.90;40.50;;;;;;6174179;23;20910;-70
2022/09/05 06:09:28;;;;;;;1.90;1.80;;;25.00;40.50;;;;;;6198599;23;20495;-70
2022/09/05 06:12:31;;;;;;;2.30;2.00;;;25.00;40.60;;;;;;6174068;23;20439;-70
2022/09/05 06:15:02;;;;;;;2.13;1.93;;;24.90;40.50;;;;;;6202034;23;20474;-70
2022/09/05 06:17:52;;;;;;;2.20;2.00;;;25.00;40.60;;;;;;6162908;23;20427;-70
2022/09/05 06:20:50;;;;;;;2.30;2.20;;;24.90;40.60;;;;;;6175079;23;20523;-70
2022/09/05 06:23:51;;;;;;;2.20;2.10;;;25.00;40.60;;;;;;6178309;23;20419;-70
2022/09/05 06:26:57;;;;;;;2.00;1.90;;;25.00;40.60;;;;;;6092193;23;20395;-70
2022/09/05 06:29:42;;;;;;;2.10;1.90;;;25.00;40.70;;;;;;6108491;23;20757;-70
2022/09/05 06:32:31;;;;;;;2.13;1.93;;;24.90;40.70;;;;;;6168283;23;20926;-70
2022/09/05 06:35:21;;;;;;;2.00;1.90;;;24.90;40.70;;;;;;6171588;23;20418;-69
2022/09/05 06:37:55;;;;;;;2.20;2.10;;;25.00;40.70;;;;;;6205396;23;20520;-69
2022/09/05 06:40:34;;;;;;;2.07;1.97;;;24.90;40.70;;;;;;6205623;23;20561;-70
2022/09/05 06:43:34;;;;;;;2.10;2.00;;;25.00;40.70;;;;;;6200753;23;20418;-70
2022/09/05 06:46:22;;;;;;;2.20;2.00;;;25.00;40.70;;;;;;6123297;23;20423;-70
2022/09/05 06:49:13;;;;;;;2.20;2.10;;;25.00;40.80;;;;;;6199432;23;20419;-69
2022/09/05 06:52:02;;;;;;;2.10;2.00;;;25.00;40.80;;;;;;6197318;23;20424;-70
2022/09/05 06:54:52;;;;;;;2.10;2.00;;;24.90;40.70;;;;;;6180328;23;20408;-70
2022/09/05 06:57:44;;;;;;;2.00;1.90;;;25.00;40.80;;;;;;6174099;23;20422;-70
2022/09/05 07:00:28;;;;;;;3.10;2.30;;;25.00;40.80;;;;;;6204830;23;20422;-70
2022/09/05 07:02:59;;;;;;;2.23;2.13;;;25.00;40.70;;;;;;6180666;23;20411;-70
2022/09/05 07:05:55;;;;;;;2.00;1.90;;;24.90;40.70;;;;;;6208085;23;20466;-70
2022/09/05 07:08:43;;;;;;;2.23;2.13;;;25.00;40.80;;;;;;6195680;23;20409;-70
2022/09/05 07:11:15;;;;;;;5.63;2.07;;;25.00;40.80;;;;;;6189912;23;20420;-71
2022/09/05 07:14:07;;;;;;;2.07;1.87;;;25.00;40.80;;;;;;6186562;23;20465;-70
2022/09/05 07:16:39;;;;;;;1.93;1.83;;;25.00;40.80;;;;;;6204083;23;20518;-70
2022/09/05 07:19:26;;;;;;;2.63;2.30;;;25.00;40.80;;;;;;6208797;23;20431;-70
2022/09/05 07:22:12;;;;;;;2.00;1.90;;;25.00;40.80;;;;;;6200496;23;20495;-70
2022/09/05 07:24:43;;;;;;;2.37;2.17;;;25.00;40.80;;;;;;6180272;23;20645;-70
2022/09/05 07:27:23;;;;;;;2.37;2.27;;;25.00;40.80;;;;;;6199017;23;20900;-70
2022/09/05 07:29:52;;;;;;;2.83;2.50;;;25.00;40.90;;;;;;6207306;23;20410;-71
2022/09/05 07:32:17;;;;;;;1.97;1.87;;;25.00;40.90;;;;;;6204096;23;20519;-71
2022/09/05 07:34:46;;;;;;;2.00;1.90;;;25.00;40.90;;;;;;6184861;23;20733;-70
2022/09/05 07:37:17;;;;;;;2.10;2.00;;;25.00;40.80;;;;;;6175398;23;20226;-70
2022/09/05 07:39:59;;;;;;;2.00;1.90;;;25.00;40.80;;;;;;6181540;23;20408;-70
2022/09/05 07:42:35;;;;;;;2.33;2.23;;;25.00;40.90;;;;;;6186143;23;20420;-70
2022/09/05 07:45:14;;;;;;;2.30;2.03;;;25.00;40.90;;;;;;6156539;23;20423;-70
2022/09/05 07:47:53;;;;;;;2.57;2.20;;;25.00;40.90;;;;;;6204724;23;20411;-70
2022/09/05 07:50:20;;;;;;;2.10;2.00;;;25.00;40.90;;;;;;6206979;23;20411;-70
2022/09/05 07:52:47;;;;;;;2.27;2.17;;;25.00;40.90;;;;;;6178125;23;20419;-70
2022/09/05 07:55:33;;;;;;;2.60;2.30;;;25.00;40.90;;;;;;6208476;23;20511;-70
2022/09/05 07:58:01;;;;;;;2.00;1.90;;;25.00;40.80;;;;;;6197847;23;20528;-70
2022/09/05 08:00:29;;;;;;;2.20;2.10;;;25.00;40.80;;;;;;6184770;23;20797;-70
2022/09/05 08:02:59;;;;;;;2.17;2.07;;;25.00;40.90;;;;;;6179010;23;20495;-70
2022/09/05 08:05:33;;;;;;;2.10;2.00;;;25.00;41.00;;;;;;6188528;23;20409;-70
2022/09/05 08:08:02;;;;;;;2.00;1.90;;;25.00;41.00;;;;;;6178117;23;20420;-71
2022/09/05 08:10:32;;;;;;;2.30;2.20;;;25.00;41.00;;;;;;6150242;23;20892;-70
2022/09/05 08:13:03;;;;;;;2.50;2.40;;;25.00;40.90;;;;;;6175586;23;20427;-70
2022/09/05 08:15:29;;;;;;;2.07;1.97;;;25.00;40.90;;;;;;6191571;23;21361;-70
2022/09/05 08:18:07;;;;;;;2.00;1.90;;;25.00;41.00;;;;;;6196535;23;20434;-70
2022/09/05 08:21:12;;;;;;;2.33;2.23;;;25.00;41.70;;;;;;6179843;23;20672;-70
2022/09/05 08:23:57;;;;;;;2.50;2.30;;;25.00;41.00;;;;;;6179531;23;21000;-69
2022/09/05 08:26:28;;;;;;;2.40;2.20;;;25.00;41.00;;;;;;6201431;23;20416;-70
2022/09/05 08:29:03;;;;;;;2.10;2.00;;;25.00;41.00;;;;;;6182410;23;20409;-70
2022/09/05 08:31:45;;;;;;;2.27;2.17;;;25.00;41.00;;;;;;6174780;23;20827;-70
2022/09/05 08:34:20;;;;;;;2.20;2.10;;;25.00;41.00;;;;;;6151757;23;20420;-70
2022/09/05 08:36:48;;;;;;;2.07;1.97;;;25.00;41.00;;;;;;6177065;23;20434;-70
2022/09/05 08:39:24;;;;;;;2.13;2.03;;;25.00;41.00;;;;;;6189987;23;20753;-70
2022/09/05 08:42:14;;;;;;;2.27;2.13;;;25.00;40.90;;;;;;6199212;23;20420;-70
2022/09/05 08:45:03;;;;;;;2.20;2.10;;;25.00;41.00;;;;;;6177402;23;20467;-70
2022/09/05 08:47:35;;;;;;;2.23;2.13;;;25.00;41.00;;;;;;6206188;23;20427;-70
2022/09/05 08:50:22;;;;;;;2.63;2.53;;;25.00;41.10;;;;;;6207986;23;20419;-70
2022/09/05 08:53:08;;;;;;;2.13;1.90;;;25.00;41.00;;;;;;6200024;23;20424;-70
2022/09/05 08:55:45;;;;;;;2.33;2.23;;;25.00;41.00;;;;;;6165241;23;20415;-70
2022/09/05 08:58:19;;;;;;;2.20;2.10;;;25.00;41.00;;;;;;6179532;23;20452;-70
2022/09/05 09:00:57;;;;;;;2.07;1.97;;;25.00;41.00;;;;;;6187026;23;20422;-69
2022/09/05 09:03:37;;;;;;;2.10;2.00;;;25.00;41.00;;;;;;6181797;23;20412;-70
2022/09/05 09:06:12;;;;;;;2.40;2.30;;;25.00;41.00;;;;;;6205743;23;20419;-70
2022/09/05 09:08:44;;;;;;;2.47;2.27;;;25.00;41.00;;;;;;6187395;23;20549;-70
2022/09/05 09:11:35;;;;;;;2.43;2.33;;;25.00;41.00;;;;;;6194292;23;20914;-70
2022/09/05 09:14:22;;;;;;;2.23;2.13;;;25.00;41.00;;;;;;6204066;23;20447;-70
2022/09/05 09:17:06;;;;;;;2.10;2.00;;;24.90;41.00;;;;;;6194877;23;20436;-70
2022/09/05 09:20:10;;;;;;;2.33;2.23;;;25.00;41.00;;;;;;6205205;23;20436;-70
2022/09/05 09:22:57;;;;;;;2.17;2.07;;;25.00;41.10;;;;;;6190929;23;20415;-70
2022/09/05 09:25:41;;;;;;;2.20;2.10;;;24.90;41.00;;;;;;6193028;23;20458;-70
2022/09/05 09:28:42;;;;;;;2.33;2.23;;;24.90;41.00;;;;;;6205380;23;20728;-70
2022/09/05 09:31:32;;;;;;;2.47;2.37;;;24.90;41.00;;;;;;6187335;23;20411;-70
2022/09/05 09:34:12;;;;;;;1.97;1.87;;;24.90;41.00;;;;;;6171092;23;20897;-70
2022/09/05 09:37:13;;;;;;;2.60;2.50;;;25.00;41.20;;;;;;6176594;23;20436;-70
2022/09/05 09:40:03;;;;;;;2.50;2.40;;;24.90;41.00;;;;;;6180158;23;20446;-69
2022/09/05 09:42:53;;;;;;;2.00;1.90;;;24.90;41.10;;;;;;6202922;23;20442;-70
2022/09/05 09:45:31;;;;;;;2.33;2.23;;;24.90;41.00;;;;;;6204613;23;20469;-70
2022/09/05 09:48:08;;;;;;;2.17;2.07;;;24.90;41.00;;;;;;6201590;23;20493;-70
2022/09/05 09:50:52;;;;;;;2.27;2.17;;;24.90;41.10;;;;;;6206466;23;20419;-70
2022/09/05 09:53:36;;;;;;;2.50;2.40;;;24.90;41.10;;;;;;6175969;23;20408;-70
2022/09/05 09:56:20;;;;;;;2.47;2.37;;;24.90;41.00;;;;;;6203100;23;20403;-70
2022/09/05 09:58:53;;;;;;;2.37;2.27;;;24.90;41.00;;;;;;6179879;23;21160;-70
2022/09/05 10:01:27;;;;;;;2.63;2.47;;;24.90;41.00;;;;;;6205958;23;20896;-70
2022/09/05 10:04:40;;;;;;;2.20;2.10;;;24.90;41.10;;;;;;6205681;23;20416;-70
2022/09/05 10:07:24;;;;;;;2.33;2.23;;;24.90;41.80;;;;;;6102427;23;20418;-70
2022/09/05 10:10:26;;;;;;;2.00;1.90;;;24.90;41.00;;;;;;6113384;23;20497;-70
2022/09/05 10:13:18;;;;;;;2.17;2.07;;;24.90;41.00;;;;;;6169205;23;20404;-70
2022/09/05 10:16:08;;;;;;;2.80;2.70;;;24.90;41.00;;;;;;6175303;23;20487;-70
2022/09/05 10:19:10;;;;;;;2.97;2.80;;;24.90;41.10;;;;;;6203732;23;20782;-70
2022/09/05 10:21:51;;;;;;;2.60;2.40;;;24.90;41.10;;;;;;6187232;23;20491;-70
2022/09/05 10:24:33;;;;;;;2.53;2.43;;;24.90;41.10;;;;;;6185000;23;20407;-70
2022/09/05 10:27:35;;;;;;;2.60;2.50;;;24.90;41.10;;;;;;6207213;23;20747;-70
2022/09/05 10:30:22;;;;;;;2.57;2.37;;;24.90;41.10;;;;;;6192094;23;20763;-70
2022/09/05 10:33:16;;;;;;;2.87;2.77;;;24.90;41.10;;;;;;6177687;23;20443;-70
2022/09/05 10:35:47;;;;;;;2.60;2.50;;;24.90;41.10;;;;;;6206038;23;20895;-70
2022/09/05 10:38:41;;;;;;;2.60;2.47;;;24.90;41.10;;;;;;6195998;23;20431;-70
2022/09/05 10:41:14;;;;;;;2.47;2.37;;;24.90;41.10;;;;;;6182356;23;20420;-70
2022/09/05 10:43:58;;;;;;;3.00;2.80;;;24.90;41.20;;;;;;6176767;23;21188;-70
2022/09/05 10:46:44;;;;;;;2.70;2.60;;;24.90;41.10;;;;;;6177146;23;20427;-71
2022/09/05 10:49:13;;;;;;;2.50;2.40;;;24.90;41.20;;;;;;6163895;23;20496;-70
2022/09/05 10:52:10;;;;;;;2.20;2.10;;;24.90;41.20;;;;;;6186562;23;20491;-70
2022/09/05 10:54:46;;;;;;;2.73;2.63;;;24.90;41.20;;;;;;6180287;23;21027;-70
2022/09/05 10:57:39;;;;;;;2.70;2.60;;;24.90;41.20;;;;;;6183104;23;20538;-71
2022/09/05 11:00:42;;;;;;;2.70;2.57;;;24.90;41.10;;;;;;6170634;23;20430;-71
2022/09/05 11:03:17;;;;;;;2.60;2.50;;;24.90;41.10;;;;;;6200927;23;20438;-71
2022/09/05 11:05:55;;;;;;;2.33;2.23;;;24.90;41.50;;;;;;6184064;23;20495;-71
2022/09/05 11:08:38;;;;;;;3.33;3.13;;;24.90;41.10;;;;;;6183263;23;20895;-70
2022/09/05 11:11:14;;;;;;;2.50;2.40;;;24.90;41.10;;;;;;6188489;23;20412;-71
2022/09/05 11:13:53;;;;;;;2.50;2.40;;;24.90;41.20;;;;;;6184590;23;20411;-71
2022/09/05 11:16:20;;;;;;;2.30;2.20;;;24.90;42.00;;;;;;6180543;23;20457;-70
2022/09/05 11:19:14;;;;;;;2.37;2.27;;;24.90;41.20;;;;;;6195193;23;20447;-70
2022/09/05 11:21:57;;;;;;;2.83;2.73;;;24.90;41.10;;;;;;6169746;23;20419;-70
2022/09/05 11:24:46;;;;;;;2.40;2.30;;;24.90;41.20;;;;;;6200225;23;20843;-71
2022/09/05 11:27:21;;;;;;;2.67;2.57;;;24.90;41.10;;;;;;6163620;23;20412;-71
2022/09/05 11:29:52;;;;;;;2.40;2.30;;;24.90;41.10;;;;;;6199622;23;20743;-71
2022/09/05 11:32:36;;;;;;;2.50;2.40;;;24.90;41.10;;;;;;6206302;23;20396;-71
2022/09/05 11:35:47;;;;;;;3.00;2.80;;;24.90;41.10;;;;;;6206445;23;20408;-71
2022/09/05 11:38:41;;;;;;;2.57;2.47;;;24.90;41.10;;;;;;6127972;23;20435;-71
2022/09/05 11:41:19;;;;;;;2.50;2.40;;;24.90;41.10;;;;;;6185542;23;20428;-71
2022/09/05 11:44:09;;;;;;;2.50;2.40;;;24.90;41.10;;;;;;6189004;23;20720;-70
2022/09/05 11:46:44;;;;;;;2.47;2.30;;;24.90;41.10;;;;;;6202421;23;20419;-70
2022/09/05 11:49:35;;;;;;;2.53;2.43;;;24.90;41.10;;;;;;6165386;23;20407;-74
2022/09/05 11:52:03;;;;;;;2.33;2.23;;;24.90;41.10;;;;;;6184297;23;20404;-70
2022/09/05 11:54:44;;;;;;;2.80;2.70;;;24.90;41.10;;;;;;6179139;23;20452;-71
2022/09/05 11:57:39;;;;;;;2.43;2.33;;;24.90;41.10;;;;;;6175971;23;20484;-71
2022/09/05 12:00:10;;;;;;;2.53;2.43;;;24.90;41.10;;;;;;6198546;23;20416;-71
2022/09/05 12:02:57;;;;;;;2.60;2.47;;;24.90;41.10;;;;;;6156488;23;20923;-71
2022/09/05 12:05:32;;;;;;;2.80;2.60;;;24.90;41.10;;;;;;6173921;23;20408;-71
2022/09/05 12:08:04;;;;;;;2.20;2.10;;;24.90;41.10;;;;;;6192484;23;20442;-71
2022/09/05 12:11:05;;;;;;;2.60;2.50;;;24.90;41.10;;;;;;6208277;23;20484;-71
2022/09/05 12:13:45;;;;;;;2.73;2.63;;;24.90;41.10;;;;;;6192639;23;20412;-71
2022/09/05 12:16:38;;;;;;;2.50;2.40;;;24.90;41.10;;;;;;6190453;23;20439;-71
2022/09/05 12:19:33;;;;;;;2.80;2.70;;;24.90;41.10;;;;;;6196879;23;20483;-71
2022/09/05 12:22:17;;;;;;;2.50;2.40;;;24.90;41.10;;;;;;6192826;23;20471;-71
2022/09/05 12:25:10;;;;;;;2.30;2.20;;;24.90;41.10;;;;;;6199092;23;21091;-71
2022/09/05 12:27:36;;;;;;;2.73;2.63;;;24.90;41.10;;;;;;6179971;23;20408;-71
2022/09/05 12:30:10;;;;;;;2.73;2.63;;;24.90;41.10;;;;;;6208511;23;20414;-70
2022/09/05 12:32:50;;;;;;;2.67;2.57;;;24.90;41.10;;;;;;6198637;23;20907;-70
2022/09/05 12:35:43;;;;;;;2.97;2.53;;;24.90;41.10;;;;;;6176188;23;20415;-70
2022/09/05 12:38:43;;;;;;;2.80;2.60;;;24.90;41.10;;;;;;6182862;23;20428;-70
2022/09/05 12:41:24;;;;;;;2.60;2.50;;;24.90;41.10;;;;;;6205234;23;20474;-71
2022/09/05 12:44:02;;;;;;;2.63;2.50;;;24.90;41.10;;;;;;6206667;23;20419;-71
2022/09/05 12:46:56;;;;;;;2.47;2.37;;;24.90;41.10;;;;;;6206669;23;20505;-70
2022/09/05 12:49:28;;;;;;;2.37;2.27;;;24.90;41.10;;;;;;6206904;23;20407;-71
2022/09/05 12:52:11;;;;;;;2.60;2.50;;;24.90;41.10;;;;;;6207329;23;20930;-70
2022/09/05 12:54:54;;;;;;;2.80;2.70;;;24.90;41.10;;;;;;6182043;23;20902;-70
2022/09/05 12:57:28;;;;;;;2.50;2.40;;;24.90;41.10;;;;;;6174388;23;20420;-70
2022/09/05 13:00:02;;;;;;;3.00;2.80;;;24.90;41.10;;;;;;6177548;23;20899;-70
2022/09/05 13:02:31;;;;;;;3.03;2.83;;;24.90;41.10;;;;;;6206092;23;20494;-70
2022/09/05 13:05:02;;;;;;;2.53;2.43;;;24.90;41.10;;;;;;6182836;23;20412;-70
2022/09/05 13:07:41;;;;;;;2.30;2.20;;;24.90;41.10;;;;;;6156049;23;20423;-72
2022/09/05 13:10:23;;;;;;;2.67;2.57;;;24.90;41.10;;;;;;6180864;23;20899;-72
2022/09/05 13:12:58;;;;;;;2.60;2.50;;;24.90;41.10;;;;;;6206554;23;20950;-72
2022/09/05 13:15:34;;;;;;;3.03;2.83;;;24.90;41.10;;;;;;6207243;23;20469;-72
2022/09/05 13:18:29;;;;;;;2.33;2.23;;;24.90;41.10;;;;;;6164968;23;20439;-72
2022/09/05 13:20:55;;;;;;;3.20;3.00;;;24.90;41.10;;;;;;6206721;23;20890;-72
2022/09/05 13:23:35;;;;;;;2.90;2.80;;;24.90;41.10;;;;;;6194872;23;20462;-72
2022/09/05 13:26:10;;;;;;;2.93;2.80;;;24.90;41.20;;;;;;6189796;23;20209;-72
2022/09/05 13:29:11;;;;;;;2.70;2.60;;;24.90;41.10;;;;;;6207284;23;20430;-72
2022/09/05 13:31:39;;;;;;;3.10;2.90;;;24.90;41.10;;;;;;6205136;23;20427;-72
2022/09/05 13:34:19;;;;;;;2.50;2.30;;;24.90;41.10;;;;;;6207627;23;20423;-72
2022/09/05 13:36:56;;;;;;;3.00;2.80;;;24.90;41.20;;;;;;6207934;23;20423;-71
2022/09/05 13:39:27;;;;;;;2.90;2.70;;;24.90;42.00;;;;;;6179857;23;20786;-72
2022/09/05 13:41:58;;;;;;;3.30;3.00;;;24.90;41.20;;;;;;6174780;23;20878;-72
2022/09/05 13:44:25;;;;;;;3.07;2.60;;;24.90;41.20;;;;;;6192600;23;20507;-72
2022/09/05 13:46:53;;;;;;;2.50;2.40;;;24.90;41.20;;;;;;6181844;23;20898;-72
2022/09/05 13:49:25;;;;;;;2.87;2.67;;;24.90;41.20;;;;;;6163991;23;20417;-72
2022/09/05 13:51:59;;;;;;;2.80;2.70;;;24.90;41.20;;;;;;6202361;23;20500;-72
2022/09/05 13:54:35;;;;;;;2.90;2.80;;;24.90;41.20;;;;;;6204880;23;20478;-72
2022/09/05 13:57:26;;;;;;;2.37;2.27;;;24.90;41.90;;;;;;6181425;23;20424;-72
2022/09/05 14:00:11;;;;;;;2.90;2.70;;;24.90;41.90;;;;;;6188418;23;20470;-72
2022/09/05 14:03:01;;;;;;;2.77;2.63;;;24.90;41.20;;;;;;6172470;23;20422;-72
2022/09/05 14:06:03;;;;;;;4.20;2.73;;;24.90;41.20;;;;;;6187101;23;20395;-72
2022/09/05 14:09:02;;;;;;;2.33;2.23;;;24.90;41.20;;;;;;6190349;23;20451;-71
2022/09/05 14:11:54;;;;;;;2.47;2.37;;;24.90;41.20;;;;;;6192210;23;20419;-72